Time;durP1;ratioP1;P1;durP2;ratioP2;P2;SDS_P1;SDS_P2;PMS_P1;PMS_P2;Temp;Humidity;BMP_temperature;BMP_pressure;BME280_temperature;BME280_humidity;BME280_pressure;Samples;Min_cycle;Max_cycle;Signal;HPM_P1;HPM_P2
2023/07/01 00:04:27;;;;;;;19.67;17.43;;;22.00;44.30;;;;;;10424860;28;20239;-69
2023/07/01 00:09:33;;;;;;;20.23;17.37;;;22.10;44.60;;;;;;10421953;28;20282;-69
2023/07/01 00:14:36;;;;;;;19.07;17.17;;;22.00;45.30;;;;;;10418670;28;20232;-69
2023/07/01 00:19:39;;;;;;;18.63;16.73;;;21.80;45.00;;;;;;10415129;28;20235;-69
2023/07/01 00:24:44;;;;;;;17.40;15.63;;;21.80;45.20;;;;;;10429754;28;20225;-69
2023/07/01 00:29:47;;;;;;;19.23;16.77;;;21.70;45.60;;;;;;10419279;28;20256;-69
2023/07/01 00:34:50;;;;;;;18.80;16.83;;;21.70;45.50;;;;;;10419372;28;20315;-69
2023/07/01 00:39:55;;;;;;;20.57;16.20;;;21.80;45.60;;;;;;10417180;28;20287;-69
2023/07/01 00:44:59;;;;;;;18.87;15.93;;;21.80;46.00;;;;;;10421344;28;20221;-70
2023/07/01 00:50:03;;;;;;;18.93;16.97;;;21.90;45.60;;;;;;10416242;28;20221;-69
2023/07/01 00:55:09;;;;;;;19.80;17.63;;;21.90;45.60;;;;;;10421237;28;20237;-69
2023/07/01 01:00:14;;;;;;;19.37;15.80;;;21.80;45.90;;;;;;10423490;28;20667;-69
2023/07/01 01:05:23;;;;;;;18.83;16.83;;;21.80;45.60;;;;;;10417365;28;20227;-69
2023/07/01 01:10:29;;;;;;;19.27;16.73;;;21.80;46.50;;;;;;10425786;28;20240;-69
2023/07/01 01:15:32;;;;;;;17.03;15.33;;;21.70;45.80;;;;;;10415911;28;20345;-69
2023/07/01 01:20:39;;;;;;;16.70;14.93;;;21.60;45.60;;;;;;10423281;28;20235;-69
2023/07/01 01:25:48;;;;;;;16.77;14.97;;;21.60;46.00;;;;;;10421368;28;20235;-69
2023/07/01 01:30:53;;;;;;;16.87;14.33;;;21.60;46.50;;;;;;10423418;28;20308;-69
2023/07/01 01:36:07;;;;;;;15.80;13.57;;;21.50;46.10;;;;;;10423568;28;20316;-69
2023/07/01 01:41:16;;;;;;;15.37;13.77;;;21.50;46.60;;;;;;10418781;28;20228;-69
2023/07/01 01:46:22;;;;;;;14.43;13.03;;;21.40;45.90;;;;;;10429357;28;20443;-69
2023/07/01 01:51:26;;;;;;;14.87;12.63;;;21.40;46.20;;;;;;10419519;28;20653;-69
2023/07/01 01:56:31;;;;;;;12.60;11.30;;;21.30;45.80;;;;;;10425337;28;20232;-69
2023/07/01 02:01:36;;;;;;;12.70;11.40;;;21.30;45.90;;;;;;10421046;28;20271;-69
2023/07/01 02:06:39;;;;;;;12.57;10.93;;;21.20;46.30;;;;;;10425240;28;20229;-69
2023/07/01 02:11:44;;;;;;;13.87;11.80;;;21.20;46.00;;;;;;10425180;28;20576;-69
2023/07/01 02:16:49;;;;;;;12.57;11.27;;;21.20;46.40;;;;;;10420354;28;20244;-69
2023/07/01 02:21:52;;;;;;;14.90;11.13;;;21.20;46.70;;;;;;10419205;28;20232;-69
2023/07/01 02:26:55;;;;;;;12.50;11.30;;;21.20;46.30;;;;;;10426653;28;20228;-69
2023/07/01 02:32:00;;;;;;;12.37;11.03;;;21.10;46.20;;;;;;10423071;28;20227;-69
2023/07/01 02:37:03;;;;;;;12.33;10.67;;;21.00;46.30;;;;;;10417316;28;20312;-69
2023/07/01 02:42:07;;;;;;;12.13;10.83;;;21.00;46.40;;;;;;10423203;28;20230;-69
2023/07/01 02:47:12;;;;;;;13.73;10.93;;;21.10;47.10;;;;;;10423127;28;20628;-69
2023/07/01 02:52:17;;;;;;;11.23;10.13;;;21.10;46.40;;;;;;10413305;28;20226;-69
2023/07/01 02:57:20;;;;;;;11.60;10.40;;;21.10;46.00;;;;;;10426816;28;20232;-69
2023/07/01 03:02:24;;;;;;;12.50;9.87;;;21.10;46.00;;;;;;10421827;28;20752;-69
2023/07/01 03:07:27;;;;;;;10.90;9.70;;;21.10;46.00;;;;;;10415250;28;20909;-69
2023/07/01 03:12:31;;;;;;;10.87;9.77;;;21.10;45.80;;;;;;10424157;28;20234;-69
2023/07/01 03:17:35;;;;;;;11.13;9.93;;;21.10;45.70;;;;;;10421988;28;20295;-69
2023/07/01 03:22:39;;;;;;;10.87;9.33;;;21.00;45.80;;;;;;10417130;28;20224;-69
2023/07/01 03:27:42;;;;;;;10.77;9.53;;;21.00;45.60;;;;;;10413874;28;20320;-69
2023/07/01 03:32:48;;;;;;;11.83;9.90;;;21.00;45.70;;;;;;10416411;28;20224;-69
2023/07/01 03:37:51;;;;;;;11.03;9.83;;;21.00;46.00;;;;;;10418217;28;20229;-69
2023/07/01 03:42:54;;;;;;;9.70;8.70;;;20.90;45.70;;;;;;10415915;28;20225;-69
2023/07/01 03:47:59;;;;;;;10.73;9.53;;;20.90;45.90;;;;;;10428940;28;20239;-69
2023/07/01 03:53:02;;;;;;;10.40;9.30;;;20.90;46.10;;;;;;10419027;28;20864;-69
2023/07/01 03:58:05;;;;;;;9.77;8.80;;;20.90;45.80;;;;;;10419193;28;20229;-69
2023/07/01 04:03:10;;;;;;;9.70;8.80;;;20.90;45.80;;;;;;10426775;28;20736;-69
2023/07/01 04:08:13;;;;;;;10.10;9.03;;;20.90;45.80;;;;;;10426229;28;20714;-69
2023/07/01 04:13:16;;;;;;;9.73;8.73;;;20.80;45.60;;;;;;10421867;28;20221;-69
2023/07/01 04:18:21;;;;;;;9.20;8.30;;;20.80;45.90;;;;;;10429255;28;20229;-69
2023/07/01 04:23:24;;;;;;;9.10;8.20;;;20.70;46.00;;;;;;10426806;28;20229;-69
2023/07/01 04:28:27;;;;;;;9.10;7.77;;;20.70;45.90;;;;;;10432636;28;20834;-68
2023/07/01 04:33:32;;;;;;;10.63;8.80;;;20.70;46.00;;;;;;10429388;28;20291;-69
2023/07/01 04:38:35;;;;;;;9.37;8.30;;;20.80;46.60;;;;;;10425255;28;20352;-69
2023/07/01 04:43:38;;;;;;;8.27;7.47;;;20.80;46.20;;;;;;10429674;28;20257;-69
2023/07/01 04:48:43;;;;;;;8.53;7.53;;;20.80;46.20;;;;;;10435264;28;20841;-69
2023/07/01 04:53:46;;;;;;;8.07;7.37;;;20.70;46.40;;;;;;10416311;28;20220;-69
2023/07/01 04:58:49;;;;;;;8.17;7.37;;;20.70;46.40;;;;;;10424573;28;20695;-69
2023/07/01 05:03:54;;;;;;;8.33;7.23;;;20.70;46.30;;;;;;10425848;28;20712;-69
2023/07/01 05:08:58;;;;;;;8.33;7.53;;;20.60;46.50;;;;;;10412819;28;20221;-69
2023/07/01 05:14:01;;;;;;;8.97;7.40;;;20.60;46.50;;;;;;10422534;28;20261;-69
2023/07/01 05:19:05;;;;;;;8.13;7.33;;;20.50;46.40;;;;;;10422444;28;20752;-69
2023/07/01 05:24:09;;;;;;;8.10;7.30;;;20.50;46.60;;;;;;10421650;28;20750;-68
2023/07/01 05:29:12;;;;;;;8.00;7.30;;;20.50;46.70;;;;;;10423366;28;20328;-69
2023/07/01 05:34:17;;;;;;;6.83;6.23;;;20.60;46.50;;;;;;10418351;28;20721;-69
2023/07/01 05:39:20;;;;;;;6.80;6.20;;;20.60;46.60;;;;;;10417995;28;20240;-69
2023/07/01 05:44:24;;;;;;;6.50;5.90;;;20.60;46.30;;;;;;10416760;28;20253;-69
2023/07/01 05:49:29;;;;;;;6.53;5.50;;;20.70;46.30;;;;;;10420941;28;20236;-69
2023/07/01 05:54:32;;;;;;;7.33;6.17;;;20.70;46.10;;;;;;10417991;28;20229;-69
2023/07/01 05:59:35;;;;;;;6.20;5.70;;;20.70;46.30;;;;;;10420255;28;20233;-69
2023/07/01 06:04:40;;;;;;;6.20;5.60;;;20.80;46.10;;;;;;10416804;28;20229;-69
2023/07/01 06:09:48;;;;;;;6.73;5.77;;;20.80;46.20;;;;;;10424532;28;20248;-68
2023/07/01 06:14:51;;;;;;;5.90;5.30;;;20.90;45.90;;;;;;10421300;28;20228;-69
2023/07/01 06:19:55;;;;;;;6.70;6.10;;;20.90;46.00;;;;;;10426913;28;20340;-70
2023/07/01 06:24:59;;;;;;;7.10;6.40;;;20.90;46.00;;;;;;10418327;28;20225;-68
2023/07/01 06:30:03;;;;;;;6.57;6.00;;;21.00;46.00;;;;;;10437587;28;20238;-69
2023/07/01 06:35:08;;;;;;;8.30;6.27;;;21.10;46.70;;;;;;10437756;28;20238;-68
2023/07/01 06:40:12;;;;;;;7.20;6.60;;;21.20;46.30;;;;;;10428282;28;20225;-68
2023/07/01 06:45:16;;;;;;;7.33;6.73;;;21.20;46.30;;;;;;10430522;28;20218;-68
2023/07/01 06:50:20;;;;;;;8.00;7.30;;;21.30;46.20;;;;;;10431680;28;20577;-68
2023/07/01 06:55:23;;;;;;;7.90;7.20;;;21.30;46.10;;;;;;10416162;28;20237;-68
2023/07/01 07:00:27;;;;;;;7.87;7.17;;;21.40;46.20;;;;;;10423538;28;21051;-68
2023/07/01 07:05:32;;;;;;;7.33;6.73;;;21.50;46.30;;;;;;10414858;28;20213;-68
2023/07/01 07:10:36;;;;;;;8.50;7.70;;;21.50;46.30;;;;;;10413839;28;20701;-68
2023/07/01 07:15:39;;;;;;;7.93;6.83;;;21.60;46.30;;;;;;10423241;28;20651;-68
2023/07/01 07:20:45;;;;;;;8.30;7.43;;;21.70;46.20;;;;;;10420474;28;20239;-68
2023/07/01 07:25:49;;;;;;;8.17;7.37;;;21.80;46.00;;;;;;10415769;28;20224;-68
2023/07/01 07:30:52;;;;;;;8.20;7.33;;;21.90;45.40;;;;;;10425977;28;20232;-68
2023/07/01 07:35:56;;;;;;;7.87;7.17;;;22.10;45.80;;;;;;10423055;28;20225;-68
2023/07/01 07:41:00;;;;;;;8.33;7.30;;;22.20;45.00;;;;;;10421291;28;20228;-68
2023/07/01 07:46:03;;;;;;;10.47;7.87;;;22.40;45.00;;;;;;10412868;28;20244;-69
2023/07/01 07:51:08;;;;;;;5.53;5.03;;;22.50;44.70;;;;;;10417301;28;20221;-68
2023/07/01 07:56:11;;;;;;;5.07;4.63;;;22.60;43.80;;;;;;10421046;28;20231;-68
2023/07/01 08:01:14;;;;;;;4.63;4.17;;;22.70;43.00;;;;;;10417013;28;20232;-69
2023/07/01 08:06:19;;;;;;;4.90;4.50;;;22.80;42.70;;;;;;10422536;28;21044;-68
2023/07/01 08:11:22;;;;;;;3.93;3.53;;;22.90;42.00;;;;;;10420354;28;20236;-69
2023/07/01 08:16:25;;;;;;;3.80;3.50;;;23.00;42.00;;;;;;10417240;28;20252;-68
2023/07/01 08:21:30;;;;;;;3.50;3.27;;;23.20;41.80;;;;;;10424792;28;20236;-68
2023/07/01 08:26:33;;;;;;;4.17;3.77;;;23.30;39.40;;;;;;10422690;28;20225;-68
2023/07/01 08:31:36;;;;;;;3.53;3.23;;;23.40;41.10;;;;;;10418278;28;20226;-68
2023/07/01 08:36:41;;;;;;;3.73;3.43;;;23.50;40.10;;;;;;10417853;28;20229;-68
2023/07/01 08:41:51;;;;;;;3.87;3.50;;;23.60;38.40;;;;;;10421239;28;20270;-68
2023/07/01 08:46:55;;;;;;;4.40;3.73;;;23.70;38.20;;;;;;10422053;28;20233;-68
2023/07/01 08:52:06;;;;;;;4.00;3.57;;;23.90;39.90;;;;;;10426974;28;20768;-68
2023/07/01 08:57:10;;;;;;;4.47;3.67;;;24.00;38.10;;;;;;10424714;28;20225;-68
2023/07/01 09:02:15;;;;;;;4.00;3.60;;;24.10;39.30;;;;;;10438460;28;20308;-68
2023/07/01 09:07:19;;;;;;;3.87;3.53;;;24.30;39.10;;;;;;10431120;28;20733;-68
2023/07/01 09:12:26;;;;;;;3.80;3.50;;;24.40;38.80;;;;;;10417412;28;20229;-67
2023/07/01 09:17:31;;;;;;;3.80;3.50;;;24.60;38.10;;;;;;10417531;28;20257;-68
2023/07/01 09:22:38;;;;;;;3.53;3.23;;;24.60;38.00;;;;;;10428486;28;20289;-68
2023/07/01 09:27:45;;;;;;;3.53;3.20;;;24.80;37.50;;;;;;10424447;28;20235;-68
2023/07/01 09:32:49;;;;;;;3.20;2.90;;;25.00;37.30;;;;;;10427045;28;20240;-68
2023/07/01 09:38:03;;;;;;;4.13;2.67;;;25.00;36.70;;;;;;10413461;28;20240;-68
2023/07/01 09:43:06;;;;;;;3.07;2.77;;;25.00;35.60;;;;;;10414443;28;20260;-68
2023/07/01 09:48:12;;;;;;;3.97;2.70;;;25.10;37.00;;;;;;10415221;28;20229;-68
2023/07/01 09:53:24;;;;;;;3.97;2.17;;;25.20;36.50;;;;;;10418570;28;20751;-68
2023/07/01 09:58:28;;;;;;;2.47;2.27;;;25.40;33.80;;;;;;10416771;28;20249;-69
2023/07/01 10:03:32;;;;;;;2.67;2.47;;;25.50;35.30;;;;;;10425442;28;20927;-68
2023/07/01 10:08:37;;;;;;;2.30;2.10;;;25.50;34.10;;;;;;10418386;28;20229;-68
2023/07/01 10:13:48;;;;;;;2.50;2.30;;;25.40;34.50;;;;;;10423972;28;20229;-68
2023/07/01 10:18:51;;;;;;;2.80;2.60;;;25.40;32.70;;;;;;10416742;28;20739;-68
2023/07/01 10:23:58;;;;;;;2.50;2.30;;;25.40;34.20;;;;;;10417563;28;20233;-68
2023/07/01 10:29:39;;;;;;;2.70;2.50;;;25.30;33.60;;;;;;10420259;28;20927;-68
2023/07/01 10:35:08;;;;;;;2.60;2.40;;;25.30;32.90;;;;;;10422282;28;20225;-68
2023/07/01 10:40:44;;;;;;;2.60;2.40;;;25.30;30.80;;;;;;10416142;28;20232;-69
2023/07/01 10:45:47;;;;;;;2.13;2.00;;;25.30;31.90;;;;;;10417113;28;20753;-68
2023/07/01 10:51:09;;;;;;;2.70;2.50;;;25.40;33.60;;;;;;10407456;28;20761;-67
2023/07/01 10:56:15;;;;;;;2.20;2.00;;;25.40;30.20;;;;;;10413885;28;20217;-68
2023/07/01 11:01:41;;;;;;;2.50;2.40;;;25.50;32.00;;;;;;10419052;28;20226;-68
2023/07/01 11:06:47;;;;;;;2.17;1.97;;;25.50;31.10;;;;;;10429748;28;20220;-67
2023/07/01 11:11:51;;;;;;;2.50;2.30;;;25.50;32.40;;;;;;10417287;28;20766;-68
2023/07/01 11:16:54;;;;;;;2.80;2.50;;;25.50;31.80;;;;;;10414535;28;20232;-68
2023/07/01 11:21:58;;;;;;;2.40;2.20;;;25.60;32.40;;;;;;10421970;28;21234;-67
2023/07/01 11:27:03;;;;;;;2.23;2.13;;;25.70;32.90;;;;;;10409827;28;20221;-68
2023/07/01 11:32:09;;;;;;;2.53;2.33;;;25.70;32.00;;;;;;10414852;28;20312;-68
2023/07/01 11:37:23;;;;;;;3.20;2.50;;;25.80;31.90;;;;;;10423060;28;20698;-68
2023/07/01 11:42:29;;;;;;;2.50;2.30;;;26.00;31.30;;;;;;10416012;28;20309;-68
2023/07/01 11:47:32;;;;;;;2.80;2.60;;;26.10;31.60;;;;;;10421638;28;20234;-68
2023/07/01 11:52:35;;;;;;;2.73;2.50;;;26.10;31.80;;;;;;10418152;28;20768;-68
2023/07/01 11:57:40;;;;;;;2.73;2.50;;;26.10;32.50;;;;;;10415234;28;21052;-67
2023/07/01 12:02:44;;;;;;;3.17;2.87;;;26.10;31.20;;;;;;10417277;28;20315;-67
2023/07/01 12:07:57;;;;;;;2.70;2.50;;;26.10;31.50;;;;;;10417976;28;20223;-67
2023/07/01 12:13:02;;;;;;;2.83;2.63;;;26.20;29.90;;;;;;10414753;28;20643;-68
2023/07/01 12:18:22;;;;;;;2.73;2.53;;;26.30;30.50;;;;;;10415206;28;20237;-68
2023/07/01 12:23:25;;;;;;;2.87;2.67;;;26.40;30.50;;;;;;10422384;28;20228;-68
2023/07/01 12:28:30;;;;;;;2.83;2.63;;;26.40;31.00;;;;;;10421113;28;20230;-67
2023/07/01 12:33:34;;;;;;;2.90;2.70;;;26.50;30.10;;;;;;10425938;28;20767;-68
2023/07/01 12:38:37;;;;;;;4.97;2.73;;;26.60;31.30;;;;;;10426961;28;20241;-68
2023/07/01 12:43:43;;;;;;;3.30;2.90;;;26.70;31.20;;;;;;10424326;28;20638;-67
2023/07/01 12:48:46;;;;;;;3.07;2.87;;;26.80;29.60;;;;;;10442386;28;20263;-67
2023/07/01 12:53:49;;;;;;;3.73;2.97;;;26.80;29.60;;;;;;10423574;28;20317;-68
2023/07/01 12:59:07;;;;;;;3.10;2.80;;;26.80;29.90;;;;;;10422769;28;20287;-67
2023/07/01 13:04:11;;;;;;;3.27;2.97;;;26.90;29.40;;;;;;10411593;28;20216;-67
2023/07/01 13:09:15;;;;;;;3.77;3.27;;;26.90;29.70;;;;;;10415634;28;20228;-67
2023/07/01 13:14:23;;;;;;;3.57;3.27;;;27.00;29.70;;;;;;10409523;28;20228;-67
2023/07/01 13:19:26;;;;;;;3.47;3.17;;;27.10;28.50;;;;;;10433178;28;20240;-67
2023/07/01 13:24:30;;;;;;;3.43;3.17;;;27.10;29.20;;;;;;10429930;28;20820;-67
2023/07/01 13:29:35;;;;;;;4.60;4.17;;;27.20;28.80;;;;;;10425261;28;20237;-67
2023/07/01 13:34:41;;;;;;;3.87;3.53;;;27.30;27.30;;;;;;10418234;28;20749;-67
2023/07/01 13:39:45;;;;;;;4.40;4.10;;;27.40;27.90;;;;;;10421930;28;20243;-67
2023/07/01 13:44:52;;;;;;;4.70;4.23;;;27.50;27.70;;;;;;10422832;28;20225;-68
2023/07/01 13:49:56;;;;;;;4.03;3.73;;;27.60;25.90;;;;;;10419835;28;20229;-67
2023/07/01 13:54:59;;;;;;;4.70;4.30;;;27.70;27.90;;;;;;10427033;28;20557;-67
2023/07/01 14:00:08;;;;;;;13.20;5.10;;;27.60;27.10;;;;;;10426610;28;20228;-67
2023/07/01 14:05:12;;;;;;;5.47;4.90;;;27.60;26.00;;;;;;10421194;28;20228;-67
2023/07/01 14:10:28;;;;;;;5.13;4.73;;;27.50;27.10;;;;;;10409672;28;20224;-68
2023/07/01 14:15:39;;;;;;;4.63;4.23;;;27.50;26.10;;;;;;10422361;28;20221;-67
2023/07/01 14:20:44;;;;;;;5.17;4.77;;;27.50;26.30;;;;;;10416414;28;20239;-67
2023/07/01 14:25:50;;;;;;;8.23;5.23;;;27.60;26.20;;;;;;10414645;28;20881;-67
2023/07/01 14:31:07;;;;;;;5.90;5.03;;;27.80;26.60;;;;;;10420370;28;20225;-68
2023/07/01 14:36:12;;;;;;;5.77;5.27;;;27.80;25.00;;;;;;10405541;28;20216;-67
2023/07/01 14:41:23;;;;;;;5.10;4.70;;;27.80;25.30;;;;;;10408859;28;20713;-68
2023/07/01 14:46:30;;;;;;;5.27;4.77;;;27.70;25.30;;;;;;10406984;28;20943;-68
2023/07/01 14:51:33;;;;;;;5.30;4.80;;;27.70;25.30;;;;;;10407527;28;20317;-67
2023/07/01 14:56:36;;;;;;;5.50;4.90;;;27.70;26.10;;;;;;10428468;28;20687;-67
2023/07/01 15:01:41;;;;;;;6.33;5.73;;;27.70;25.70;;;;;;10422406;28;20247;-67
2023/07/01 15:06:45;;;;;;;5.73;5.23;;;27.70;25.00;;;;;;10427552;28;20320;-67
2023/07/01 15:11:48;;;;;;;5.73;5.23;;;27.60;26.30;;;;;;10426291;28;20841;-67
2023/07/01 15:16:54;;;;;;;5.83;5.10;;;27.60;25.30;;;;;;10415390;28;20228;-67
2023/07/01 15:21:58;;;;;;;5.50;5.00;;;27.60;24.70;;;;;;10433190;28;20298;-67
2023/07/01 15:27:01;;;;;;;5.50;5.00;;;27.60;25.50;;;;;;10426080;28;20322;-67
2023/07/01 15:32:07;;;;;;;4.97;4.57;;;27.50;25.60;;;;;;10423131;28;20717;-67
2023/07/01 15:37:10;;;;;;;5.53;5.03;;;27.50;25.20;;;;;;10419380;28;20880;-67
2023/07/01 15:42:13;;;;;;;5.20;4.70;;;27.60;25.60;;;;;;10428534;28;20228;-67
2023/07/01 15:47:18;;;;;;;5.33;4.23;;;27.60;25.60;;;;;;10419203;28;20268;-67
2023/07/01 15:52:21;;;;;;;4.80;4.40;;;27.60;25.00;;;;;;10421880;28;20223;-68
2023/07/01 15:57:25;;;;;;;4.50;4.20;;;27.60;25.40;;;;;;10427110;28;20316;-67
2023/07/01 16:02:29;;;;;;;4.70;4.30;;;27.50;25.20;;;;;;10438322;28;20666;-68
2023/07/01 16:07:51;;;;;;;5.00;4.60;;;27.40;24.60;;;;;;10438788;28;20234;-68
2023/07/01 16:12:58;;;;;;;5.30;4.80;;;27.40;24.40;;;;;;10433534;28;20315;-67
2023/07/01 16:18:09;;;;;;;4.03;3.73;;;27.30;24.90;;;;;;10431946;28;20225;-70
2023/07/01 16:23:12;;;;;;;4.40;4.00;;;27.30;24.60;;;;;;10436296;28;20217;-68
2023/07/01 16:28:38;;;;;;;4.17;3.87;;;27.20;25.20;;;;;;10425781;28;20665;-68
2023/07/01 16:33:45;;;;;;;4.50;3.80;;;27.20;24.40;;;;;;10424236;28;20231;-68
2023/07/01 16:38:50;;;;;;;4.20;3.80;;;27.10;24.90;;;;;;10431243;28;20305;-68
2023/07/01 16:43:53;;;;;;;12.07;11.07;;;27.10;24.80;;;;;;10429002;28;20248;-68
2023/07/01 16:48:59;;;;;;;6.33;5.77;;;27.10;25.20;;;;;;10442161;28;20225;-68
2023/07/01 16:54:14;;;;;;;4.97;4.57;;;27.10;24.90;;;;;;10436001;28;20239;-68
2023/07/01 16:59:26;;;;;;;5.97;4.57;;;27.10;24.70;;;;;;10431724;28;20650;-68
2023/07/01 17:04:32;;;;;;;3.80;3.43;;;27.10;25.00;;;;;;10449450;28;20228;-68
2023/07/01 17:09:45;;;;;;;6.03;5.53;;;27.00;25.00;;;;;;10435266;28;20275;-68
2023/07/01 17:14:55;;;;;;;3.70;3.40;;;27.00;24.90;;;;;;10427464;28;20239;-68
2023/07/01 17:20:01;;;;;;;3.30;3.00;;;27.00;25.30;;;;;;10433984;28;20702;-68
2023/07/01 17:25:05;;;;;;;3.17;2.90;;;27.00;24.90;;;;;;10437193;28;20221;-68
2023/07/01 17:30:09;;;;;;;2.97;2.70;;;26.90;25.00;;;;;;10437141;28;20232;-67
2023/07/01 17:35:18;;;;;;;3.40;2.77;;;26.90;25.20;;;;;;10424917;28;20252;-68
2023/07/01 17:40:23;;;;;;;2.57;2.37;;;26.70;25.20;;;;;;10437129;28;20235;-68
2023/07/01 17:45:26;;;;;;;3.07;2.77;;;26.70;25.30;;;;;;10435771;28;20343;-68
2023/07/01 17:50:31;;;;;;;3.10;2.90;;;26.60;25.30;;;;;;10427655;28;20738;-68
2023/07/01 17:55:34;;;;;;;3.20;2.90;;;26.50;25.30;;;;;;10423893;28;20697;-68
2023/07/01 18:00:37;;;;;;;3.13;2.83;;;26.40;25.40;;;;;;10431320;28;20239;-68
2023/07/01 18:05:42;;;;;;;3.13;2.83;;;26.40;25.60;;;;;;10434314;28;20229;-68
2023/07/01 18:10:45;;;;;;;3.53;2.83;;;26.40;25.20;;;;;;10425787;28;20921;-68
2023/07/01 18:15:48;;;;;;;2.70;2.50;;;26.30;25.50;;;;;;10431244;28;20217;-68
2023/07/01 18:20:55;;;;;;;3.10;2.80;;;26.30;25.60;;;;;;10433780;28;20220;-68
2023/07/01 18:25:58;;;;;;;4.57;2.60;;;26.20;25.50;;;;;;10439553;28;20225;-69
2023/07/01 18:31:01;;;;;;;4.60;2.83;;;26.20;25.80;;;;;;10425699;28;20286;-68
2023/07/01 18:36:06;;;;;;;2.90;2.70;;;26.20;25.70;;;;;;10423727;28;20216;-68
2023/07/01 18:41:11;;;;;;;3.00;2.70;;;26.20;25.60;;;;;;10423593;28;20235;-68
2023/07/01 18:46:19;;;;;;;3.13;2.90;;;26.20;25.70;;;;;;10421004;28;20256;-67
2023/07/01 18:51:24;;;;;;;3.03;2.83;;;26.20;25.60;;;;;;10426001;28;20694;-68
2023/07/01 18:56:27;;;;;;;2.60;2.40;;;26.10;25.60;;;;;;10425271;28;20239;-67
2023/07/01 19:01:34;;;;;;;2.53;2.37;;;26.00;25.70;;;;;;10426850;28;20229;-68
2023/07/01 19:06:38;;;;;;;2.50;2.33;;;26.00;25.90;;;;;;10428497;28;20274;-68
2023/07/01 19:11:42;;;;;;;2.97;2.77;;;25.90;25.80;;;;;;10426891;28;20311;-66
2023/07/01 19:16:46;;;;;;;2.63;2.43;;;25.90;26.10;;;;;;10424429;28;20228;-66
2023/07/01 19:21:50;;;;;;;2.63;2.43;;;25.80;26.10;;;;;;10425797;28;20225;-66
2023/07/01 19:26:53;;;;;;;2.77;2.57;;;25.80;26.00;;;;;;10421919;28;20567;-66
2023/07/01 19:31:57;;;;;;;2.53;2.33;;;25.70;26.30;;;;;;10424947;28;20262;-66
2023/07/01 19:37:01;;;;;;;2.47;2.30;;;25.70;26.40;;;;;;10424351;28;20256;-66
2023/07/01 19:42:05;;;;;;;2.80;2.60;;;25.70;26.40;;;;;;10424674;28;20225;-66
2023/07/01 19:47:08;;;;;;;2.67;2.47;;;25.60;26.40;;;;;;10433064;28;20229;-66
2023/07/01 19:52:15;;;;;;;2.97;2.60;;;25.60;26.40;;;;;;10426430;28;20224;-66
2023/07/01 19:57:18;;;;;;;2.53;2.33;;;25.60;26.40;;;;;;10429226;28;20900;-66
2023/07/01 20:02:21;;;;;;;2.70;2.50;;;25.60;26.50;;;;;;10427776;28;20239;-66
2023/07/01 20:07:26;;;;;;;3.70;2.33;;;25.50;26.50;;;;;;10428980;28;20810;-66
2023/07/01 20:12:30;;;;;;;2.60;2.40;;;25.50;26.40;;;;;;10424405;28;20226;-66
2023/07/01 20:17:33;;;;;;;2.37;2.17;;;25.50;26.40;;;;;;10422584;28;20225;-66
2023/07/01 20:22:38;;;;;;;1.97;1.80;;;25.50;26.30;;;;;;10410874;28;20233;-66
2023/07/01 20:27:41;;;;;;;2.07;1.97;;;25.40;26.30;;;;;;10408549;28;20967;-66
2023/07/01 20:32:44;;;;;;;2.20;1.70;;;25.40;26.70;;;;;;10402366;28;20262;-66
2023/07/01 20:37:49;;;;;;;1.97;1.87;;;25.20;26.90;;;;;;10415833;28;20237;-66
2023/07/01 20:42:52;;;;;;;1.50;1.30;;;25.10;27.60;;;;;;10416178;28;20706;-66
2023/07/01 20:47:55;;;;;;;1.50;1.40;;;25.00;27.10;;;;;;10417313;28;20702;-65
2023/07/01 20:53:00;;;;;;;1.70;1.60;;;25.00;27.30;;;;;;10414196;28;20217;-66
2023/07/01 20:58:03;;;;;;;2.60;1.40;;;24.90;27.50;;;;;;10427736;28;20298;-65
2023/07/01 21:03:06;;;;;;;1.33;1.23;;;24.80;27.40;;;;;;10420323;28;20508;-66
2023/07/01 21:08:11;;;;;;;1.90;1.50;;;24.80;27.70;;;;;;10434796;28;20306;-65
2023/07/01 21:13:14;;;;;;;1.43;1.30;;;24.70;27.90;;;;;;10422197;28;20221;-66
2023/07/01 21:18:18;;;;;;;2.13;1.40;;;24.60;27.80;;;;;;10429514;28;20226;-66
2023/07/01 21:23:22;;;;;;;1.50;1.40;;;24.50;28.20;;;;;;10434850;28;20597;-66
2023/07/01 21:28:26;;;;;;;1.40;1.30;;;24.50;28.40;;;;;;10437286;28;20228;-66
2023/07/01 21:33:29;;;;;;;1.87;1.20;;;24.40;28.30;;;;;;10426681;28;20228;-66
2023/07/01 21:38:34;;;;;;;2.10;1.40;;;24.30;28.20;;;;;;10426821;28;20315;-66
2023/07/01 21:43:39;;;;;;;1.83;1.40;;;24.20;28.80;;;;;;10433903;28;20233;-66
2023/07/01 21:48:43;;;;;;;3.07;1.57;;;24.10;28.80;;;;;;10436362;28;20725;-66
2023/07/01 21:53:48;;;;;;;1.50;1.40;;;23.90;29.10;;;;;;10428853;28;20226;-66
2023/07/01 21:58:53;;;;;;;1.67;1.20;;;23.80;29.70;;;;;;10441913;28;20237;-67
2023/07/01 22:03:57;;;;;;;1.40;1.30;;;23.80;29.70;;;;;;10437349;28;20262;-66
2023/07/01 22:09:02;;;;;;;1.47;1.37;;;23.60;29.90;;;;;;10435623;28;20221;-66
2023/07/01 22:14:06;;;;;;;1.93;1.57;;;23.50;30.40;;;;;;10428462;28;20660;-66
2023/07/01 22:19:09;;;;;;;1.50;1.40;;;23.40;30.40;;;;;;10428924;28;20241;-66
2023/07/01 22:24:14;;;;;;;1.47;1.37;;;23.30;30.40;;;;;;10433160;28;20610;-66
2023/07/01 22:29:19;;;;;;;1.80;1.70;;;23.20;31.30;;;;;;10435610;28;20249;-66
2023/07/01 22:34:22;;;;;;;1.30;1.20;;;23.20;31.60;;;;;;10430100;28;20718;-66
2023/07/01 22:39:27;;;;;;;1.93;1.40;;;23.10;31.90;;;;;;10441264;28;20255;-66
2023/07/01 22:44:30;;;;;;;1.53;1.43;;;22.90;32.80;;;;;;10437298;28;20233;-66
2023/07/01 22:49:33;;;;;;;1.20;1.10;;;22.90;32.60;;;;;;10432570;28;20225;-66
2023/07/01 22:54:38;;;;;;;1.50;1.40;;;22.80;32.70;;;;;;10432819;28;20231;-66
2023/07/01 22:59:41;;;;;;;3.37;1.70;;;22.70;33.80;;;;;;10435954;28;20243;-66
2023/07/01 23:04:44;;;;;;;2.10;1.60;;;22.50;33.20;;;;;;10424083;28;20595;-68
2023/07/01 23:09:49;;;;;;;3.80;1.57;;;22.30;33.40;;;;;;10427805;28;20291;-69
2023/07/01 23:14:52;;;;;;;1.77;1.60;;;22.20;34.50;;;;;;10426472;28;20233;-69
2023/07/01 23:19:57;;;;;;;2.30;1.57;;;22.00;34.00;;;;;;10425692;28;20257;-68
2023/07/01 23:25:03;;;;;;;2.07;1.80;;;21.90;35.10;;;;;;10422775;28;20594;-66
2023/07/01 23:30:07;;;;;;;2.43;1.60;;;21.80;35.30;;;;;;10430874;28;20224;-66
2023/07/01 23:35:10;;;;;;;2.83;1.60;;;21.70;35.10;;;;;;10429672;28;20217;-66
2023/07/01 23:40:15;;;;;;;1.80;1.70;;;21.60;35.20;;;;;;10429355;28;20315;-66
2023/07/01 23:45:18;;;;;;;2.07;1.87;;;21.50;36.20;;;;;;10422286;28;20303;-66
2023/07/01 23:50:23;;;;;;;2.47;2.27;;;21.50;35.60;;;;;;10430287;28;20243;-66
2023/07/01 23:55:27;;;;;;;2.17;2.07;;;21.50;35.70;;;;;;10428034;28;20250;-66
